Time;durP1;ratioP1;P1;durP2;ratioP2;P2;SDS_P1;SDS_P2;PMS_P1;PMS_P2;Temp;Humidity;BMP_temperature;BMP_pressure;BME280_temperature;BME280_humidity;BME280_pressure;Samples;Min_cycle;Max_cycle;Signal;HPM_P1;HPM_P2
2021/07/21 00:00:23;;;;;;;11.77;9.25;;;;;;;;;;2080691;28;20180;-59
2021/07/21 00:01:23;;;;;;;12.07;9.88;;;;;;;;;;2080581;28;20274;-54
2021/07/21 00:02:23;;;;;;;10.95;9.82;;;;;;;;;;2073329;28;20185;-56
2021/07/21 00:03:23;;;;;;;12.68;9.80;;;;;;;;;;2079543;28;20212;-56
2021/07/21 00:04:24;;;;;;;11.45;10.23;;;;;;;;;;2079542;28;20181;-55
2021/07/21 00:05:25;;;;;;;11.38;8.90;;;;;;;;;;2073390;28;20178;-54
2021/07/21 00:06:26;;;;;;;11.50;9.27;;;;;;;;;;2072968;28;20176;-58
2021/07/21 00:07:26;;;;;;;10.85;9.63;;;;;;;;;;2074345;28;20219;-58
2021/07/21 00:08:26;;;;;;;10.50;9.40;;;;;;;;;;2074761;28;20181;-57
2021/07/21 00:09:26;;;;;;;13.50;9.68;;;;;;;;;;2073488;28;20181;-57
2021/07/21 00:10:27;;;;;;;13.30;9.93;;;;;;;;;;2067545;28;20562;-53
2021/07/21 00:14:19;;;;;;;11.00;9.50;;;;;;;;;;2069476;28;20720;-52
2021/07/21 00:15:19;;;;;;;12.57;10.07;;;;;;;;;;2070420;28;20216;-52
2021/07/21 00:16:28;;;;;;;11.88;10.15;;;;;;;;;;2072750;28;20168;-52
2021/07/21 00:17:33;;;;;;;11.65;10.25;;;;;;;;;;2071637;28;20181;-52
2021/07/21 00:21:01;;;;;;;14.82;9.98;;;;;;;;;;2067602;28;20634;-58
2021/07/21 00:22:02;;;;;;;10.73;8.95;;;;;;;;;;2073462;28;20252;-53
2021/07/21 00:23:02;;;;;;;11.05;9.88;;;;;;;;;;2068768;28;20629;-54
2021/07/21 00:24:03;;;;;;;14.25;10.38;;;;;;;;;;2073873;28;20194;-54
2021/07/21 00:25:04;;;;;;;15.82;10.52;;;;;;;;;;2073305;28;20232;-56
2021/07/21 00:26:05;;;;;;;12.43;9.88;;;;;;;;;;2071864;28;20583;-52
2021/07/21 00:27:05;;;;;;;14.73;10.32;;;;;;;;;;2071350;28;20276;-51
2021/07/21 00:28:05;;;;;;;11.85;9.68;;;;;;;;;;2073738;28;20169;-54
2021/07/21 00:29:05;;;;;;;11.82;10.23;;;;;;;;;;2073693;28;20633;-51
2021/07/21 00:30:09;;;;;;;12.25;9.75;;;;;;;;;;2072140;28;20177;-52
2021/07/21 00:31:15;;;;;;;10.82;9.45;;;;;;;;;;2069489;28;20218;-49
2021/07/21 00:32:16;;;;;;;12.90;10.30;;;;;;;;;;2073579;28;20184;-52
2021/07/21 00:33:16;;;;;;;12.50;9.45;;;;;;;;;;2073311;28;20231;-51
2021/07/21 00:34:17;;;;;;;14.13;9.98;;;;;;;;;;2073040;28;20689;-53
2021/07/21 00:35:18;;;;;;;12.25;9.80;;;;;;;;;;2064469;28;20170;-52
2021/07/21 00:36:18;;;;;;;10.80;9.50;;;;;;;;;;2062401;28;20863;-50
2021/07/21 00:37:19;;;;;;;15.60;10.98;;;;;;;;;;2053796;28;20218;-50
2021/07/21 00:38:19;;;;;;;12.85;10.18;;;;;;;;;;2056124;28;20190;-50
2021/07/21 00:39:19;;;;;;;11.77;10.43;;;;;;;;;;2068449;28;20276;-52
2021/07/21 00:40:20;;;;;;;10.75;9.65;;;;;;;;;;2054692;28;20739;-56
2021/07/21 00:41:21;;;;;;;12.35;9.93;;;;;;;;;;2054260;28;20178;-51
2021/07/21 00:42:21;;;;;;;14.88;10.65;;;;;;;;;;2054770;28;20186;-50
2021/07/21 00:43:22;;;;;;;13.25;10.55;;;;;;;;;;2062418;28;20607;-52
2021/07/21 00:44:22;;;;;;;12.18;9.90;;;;;;;;;;2071845;28;20645;-56
2021/07/21 00:45:26;;;;;;;13.50;10.63;;;;;;;;;;2058084;28;20182;-56
2021/07/21 00:46:26;;;;;;;13.43;9.73;;;;;;;;;;2063253;28;21392;-59
2021/07/21 00:47:28;;;;;;;13.45;11.00;;;;;;;;;;2063196;28;20181;-52
2021/07/21 00:48:28;;;;;;;11.23;10.05;;;;;;;;;;2056655;28;20182;-54
2021/07/21 00:49:28;;;;;;;12.98;10.23;;;;;;;;;;2064489;28;20189;-60
2021/07/21 00:50:29;;;;;;;13.15;10.50;;;;;;;;;;2068741;28;20213;-49
2021/07/21 00:51:30;;;;;;;10.85;9.48;;;;;;;;;;2062386;28;20208;-50
2021/07/21 00:52:38;;;;;;;12.38;10.60;;;;;;;;;;2064744;28;20608;-57
2021/07/21 00:53:39;;;;;;;17.63;13.27;;;;;;;;;;2068936;28;20197;-53
2021/07/21 00:54:45;;;;;;;14.80;11.65;;;;;;;;;;2065158;28;20324;-54
2021/07/21 00:55:46;;;;;;;12.23;10.32;;;;;;;;;;2055612;28;21812;-53
2021/07/21 00:56:46;;;;;;;12.43;9.45;;;;;;;;;;2060716;28;20345;-54
2021/07/21 00:57:47;;;;;;;11.90;10.60;;;;;;;;;;2057015;28;20635;-53
2021/07/21 00:58:47;;;;;;;12.98;11.27;;;;;;;;;;2057626;28;20179;-53
2021/07/21 00:59:50;;;;;;;13.38;10.80;;;;;;;;;;2050427;28;20201;-51
2021/07/21 01:00:50;;;;;;;14.40;10.82;;;;;;;;;;2057210;28;20264;-50
2021/07/21 01:01:50;;;;;;;16.95;11.15;;;;;;;;;;2065528;28;20589;-56
2021/07/21 01:02:51;;;;;;;11.15;9.80;;;;;;;;;;2068357;28;20256;-54
2021/07/21 01:03:51;;;;;;;12.27;10.35;;;;;;;;;;2064948;28;20193;-51
2021/07/21 01:04:54;;;;;;;15.55;10.40;;;;;;;;;;2054511;28;20167;-52
2021/07/21 01:05:54;;;;;;;14.18;10.40;;;;;;;;;;2058769;28;20181;-54
2021/07/21 01:06:55;;;;;;;14.43;10.60;;;;;;;;;;2065922;28;20748;-56
2021/07/21 01:07:56;;;;;;;14.52;11.00;;;;;;;;;;2065593;28;20171;-54
2021/07/21 01:08:59;;;;;;;12.98;10.52;;;;;;;;;;2065014;28;20581;-53
2021/07/21 01:10:20;;;;;;;12.93;10.30;;;;;;;;;;2050421;28;20190;-54
2021/07/21 01:11:26;;;;;;;18.23;10.55;;;;;;;;;;2046541;29;20232;-52
2021/07/21 01:12:31;;;;;;;11.98;10.45;;;;;;;;;;2046511;28;20183;-51
2021/07/21 01:13:37;;;;;;;12.93;10.32;;;;;;;;;;2047640;29;20223;-55
2021/07/21 01:14:57;;;;;;;12.27;10.55;;;;;;;;;;2047870;29;20167;-54
2021/07/21 01:16:04;;;;;;;16.30;11.63;;;;;;;;;;2042158;29;20572;-51
2021/07/21 01:17:11;;;;;;;13.65;11.60;;;;;;;;;;2047616;28;20253;-50
2021/07/21 01:18:22;;;;;;;14.52;11.32;;;;;;;;;;2047933;29;20186;-52
2021/07/21 01:19:41;;;;;;;14.57;11.38;;;;;;;;;;2044390;28;20176;-53
2021/07/21 01:21:05;;;;;;;12.30;10.77;;;;;;;;;;2048185;29;20194;-53
2021/07/21 01:22:29;;;;;;;13.13;11.25;;;;;;;;;;2037753;29;20539;-54
2021/07/21 01:23:29;;;;;;;13.48;10.90;;;;;;;;;;2035625;29;20211;-52
2021/07/21 01:24:47;;;;;;;13.10;10.65;;;;;;;;;;2041599;28;20214;-50
2021/07/21 01:25:55;;;;;;;12.35;10.20;;;;;;;;;;2045927;29;20206;-50
2021/07/21 01:27:31;;;;;;;13.02;10.55;;;;;;;;;;2040780;29;20203;-50
2021/07/21 01:28:32;;;;;;;11.27;10.07;;;;;;;;;;2025535;28;20197;-50
2021/07/21 01:29:34;;;;;;;13.82;10.05;;;;;;;;;;2054082;28;20729;-53
2021/07/21 01:30:36;;;;;;;11.77;10.07;;;;;;;;;;2053266;28;21065;-53
2021/07/21 01:31:39;;;;;;;11.90;9.98;;;;;;;;;;2048189;29;20749;-55
2021/07/21 01:32:42;;;;;;;13.90;10.55;;;;;;;;;;2048770;29;20686;-54
2021/07/21 01:33:44;;;;;;;12.00;10.27;;;;;;;;;;2040829;29;20278;-51
2021/07/21 01:34:46;;;;;;;14.85;10.80;;;;;;;;;;2040592;29;20218;-49
2021/07/21 01:35:53;;;;;;;12.98;10.43;;;;;;;;;;2040729;29;20304;-50
2021/07/21 01:36:54;;;;;;;15.93;11.20;;;;;;;;;;2041452;29;20793;-54
2021/07/21 01:37:57;;;;;;;14.50;11.10;;;;;;;;;;2040670;29;20660;-52
2021/07/21 01:39:03;;;;;;;12.55;10.20;;;;;;;;;;2041353;29;20648;-54
2021/07/21 01:40:06;;;;;;;11.40;10.18;;;;;;;;;;2048690;29;20686;-54
2021/07/21 01:41:10;;;;;;;12.25;10.23;;;;;;;;;;2047755;29;20181;-53
2021/07/21 01:42:16;;;;;;;14.02;10.98;;;;;;;;;;2050808;28;20236;-53
2021/07/21 01:43:19;;;;;;;13.40;10.85;;;;;;;;;;2057530;28;20213;-51
2021/07/21 01:44:22;;;;;;;18.13;10.25;;;;;;;;;;2072416;28;20177;-58
2021/07/21 01:45:24;;;;;;;13.45;9.25;;;;;;;;;;2072903;28;20173;-53
2021/07/21 01:46:26;;;;;;;12.30;10.57;;;;;;;;;;2056914;28;20166;-55
2021/07/21 01:47:31;;;;;;;13.88;11.15;;;;;;;;;;2056888;28;20187;-56
2021/07/21 01:48:33;;;;;;;12.93;10.43;;;;;;;;;;2061434;28;20220;-56
2021/07/21 01:49:36;;;;;;;14.05;10.57;;;;;;;;;;2063290;28;20178;-54
2021/07/21 01:50:39;;;;;;;12.85;10.45;;;;;;;;;;2071734;28;20192;-51
2021/07/21 01:51:41;;;;;;;13.73;10.23;;;;;;;;;;2079049;28;20214;-55
2021/07/21 01:52:48;;;;;;;14.60;10.75;;;;;;;;;;2063546;28;20285;-57
2021/07/21 01:53:51;;;;;;;12.98;10.38;;;;;;;;;;2058407;28;20198;-53
2021/07/21 01:54:56;;;;;;;14.15;10.10;;;;;;;;;;2070795;28;20177;-54
2021/07/21 01:55:56;;;;;;;14.65;10.93;;;;;;;;;;2071559;28;20180;-56
2021/07/21 01:56:57;;;;;;;12.10;9.50;;;;;;;;;;2069962;28;20173;-54
2021/07/21 01:58:00;;;;;;;15.43;10.52;;;;;;;;;;2058733;28;20669;-55
2021/07/21 01:59:30;;;;;;;14.65;11.10;;;;;;;;;;2065386;28;20195;-53
2021/07/21 02:00:37;;;;;;;12.48;10.70;;;;;;;;;;2059188;28;20163;-56
2021/07/21 02:01:38;;;;;;;12.70;10.38;;;;;;;;;;2054561;28;20616;-57
2021/07/21 02:02:49;;;;;;;13.80;10.65;;;;;;;;;;2064157;28;20664;-55
2021/07/21 02:03:56;;;;;;;13.10;11.13;;;;;;;;;;2064023;28;20177;-55
2021/07/21 02:05:05;;;;;;;14.23;10.63;;;;;;;;;;2048564;28;20211;-53
2021/07/21 02:06:07;;;;;;;14.95;11.40;;;;;;;;;;2052464;28;20683;-54
2021/07/21 02:07:10;;;;;;;12.25;10.68;;;;;;;;;;2063675;28;20178;-57
2021/07/21 02:08:12;;;;;;;12.73;10.57;;;;;;;;;;2059869;28;20186;-55
2021/07/21 02:09:12;;;;;;;13.02;10.93;;;;;;;;;;2071063;28;20259;-55
2021/07/21 02:10:18;;;;;;;15.30;11.35;;;;;;;;;;2075846;28;20176;-53
2021/07/21 02:11:28;;;;;;;12.75;11.07;;;;;;;;;;2070177;28;20205;-55
2021/07/21 02:12:32;;;;;;;15.63;11.82;;;;;;;;;;2055296;28;20254;-56
2021/07/21 02:13:34;;;;;;;15.00;11.63;;;;;;;;;;2057519;28;20622;-52
2021/07/21 02:14:55;;;;;;;13.40;10.45;;;;;;;;;;2051863;28;20269;-54
2021/07/21 02:15:56;;;;;;;13.13;10.98;;;;;;;;;;2058334;28;20197;-53
2021/07/21 02:16:58;;;;;;;16.70;11.75;;;;;;;;;;2064227;28;20696;-50
2021/07/21 02:18:06;;;;;;;14.48;11.23;;;;;;;;;;2055817;28;20546;-48
2021/07/21 02:19:09;;;;;;;13.63;10.77;;;;;;;;;;2062242;28;20181;-54
2021/07/21 02:20:24;;;;;;;13.30;10.95;;;;;;;;;;2060242;28;20181;-55
2021/07/21 02:21:28;;;;;;;13.10;11.02;;;;;;;;;;2064852;28;20178;-50
2021/07/21 02:22:28;;;;;;;13.38;10.63;;;;;;;;;;2072338;28;20242;-56
2021/07/21 02:23:48;;;;;;;15.13;10.68;;;;;;;;;;2065241;28;20201;-53
2021/07/21 02:25:09;;;;;;;13.00;10.63;;;;;;;;;;2070989;28;20588;-56
2021/07/21 02:26:13;;;;;;;16.13;12.10;;;;;;;;;;2068342;28;20177;-54
2021/07/21 02:27:14;;;;;;;16.08;11.48;;;;;;;;;;2063742;28;20177;-55
2021/07/21 02:28:15;;;;;;;13.02;10.80;;;;;;;;;;2055384;28;20186;-51
2021/07/21 02:29:19;;;;;;;14.60;11.50;;;;;;;;;;2054194;28;20806;-56
2021/07/21 02:30:32;;;;;;;14.88;11.38;;;;;;;;;;2060598;28;20174;-50
2021/07/21 02:31:36;;;;;;;12.65;10.88;;;;;;;;;;2065374;28;20189;-56
2021/07/21 02:32:52;;;;;;;15.70;11.45;;;;;;;;;;2056238;28;20182;-54
2021/07/21 02:33:57;;;;;;;12.18;10.88;;;;;;;;;;2059893;28;20893;-54
2021/07/21 02:35:00;;;;;;;15.98;12.05;;;;;;;;;;2063865;28;20181;-54
2021/07/21 02:36:03;;;;;;;13.68;10.77;;;;;;;;;;2053029;28;20210;-56
2021/07/21 02:37:03;;;;;;;14.77;10.98;;;;;;;;;;2055906;28;20182;-57
2021/07/21 02:38:08;;;;;;;16.27;11.07;;;;;;;;;;2064132;28;20256;-54
2021/07/21 02:39:17;;;;;;;16.60;11.30;;;;;;;;;;2063341;28;20224;-52
2021/07/21 02:40:17;;;;;;;18.98;12.20;;;;;;;;;;2063888;28;20352;-53
2021/07/21 02:41:22;;;;;;;14.98;11.43;;;;;;;;;;2053864;28;20269;-57
2021/07/21 02:42:24;;;;;;;15.85;11.73;;;;;;;;;;2055709;28;20236;-55
2021/07/21 02:43:25;;;;;;;14.93;11.95;;;;;;;;;;2062293;28;20657;-53
2021/07/21 02:44:27;;;;;;;17.15;12.70;;;;;;;;;;2063685;28;20180;-52
2021/07/21 02:45:27;;;;;;;15.80;12.05;;;;;;;;;;2060990;28;20585;-55
2021/07/21 02:46:29;;;;;;;15.15;11.77;;;;;;;;;;2075465;28;20181;-56
2021/07/21 02:47:29;;;;;;;14.90;10.88;;;;;;;;;;2071898;28;20201;-56
2021/07/21 02:48:35;;;;;;;14.23;11.68;;;;;;;;;;2059163;28;20202;-56
2021/07/21 02:49:37;;;;;;;16.75;12.40;;;;;;;;;;2056832;28;20182;-56
2021/07/21 02:50:43;;;;;;;14.10;11.68;;;;;;;;;;2073342;28;20564;-55
2021/07/21 02:51:52;;;;;;;14.50;12.00;;;;;;;;;;2071228;28;20195;-57
2021/07/21 02:53:25;;;;;;;14.77;12.13;;;;;;;;;;2066129;28;20232;-54
2021/07/21 02:55:08;;;;;;;19.17;12.32;;;;;;;;;;2055900;28;20181;-57
2021/07/21 02:56:12;;;;;;;16.02;11.65;;;;;;;;;;2055308;28;20173;-58
2021/07/21 02:57:23;;;;;;;16.77;12.90;;;;;;;;;;2064382;28;20169;-58
2021/07/21 02:58:45;;;;;;;14.52;11.50;;;;;;;;;;2063952;28;20178;-56
2021/07/21 02:59:50;;;;;;;15.63;11.90;;;;;;;;;;2058805;28;20165;-58
2021/07/21 03:00:55;;;;;;;16.33;11.82;;;;;;;;;;2064387;28;20211;-58
2021/07/21 03:01:57;;;;;;;16.25;12.85;;;;;;;;;;2065819;28;20177;-58
2021/07/21 03:03:15;;;;;;;14.02;11.82;;;;;;;;;;2073477;28;20180;-57
2021/07/21 03:04:21;;;;;;;17.20;12.93;;;;;;;;;;2068086;28;20239;-57
2021/07/21 03:05:24;;;;;;;15.27;13.23;;;;;;;;;;2063994;28;20551;-56
2021/07/21 03:06:45;;;;;;;15.23;12.02;;;;;;;;;;2064622;28;20271;-56
2021/07/21 03:07:48;;;;;;;17.00;12.10;;;;;;;;;;2066816;28;20196;-56
2021/07/21 03:08:54;;;;;;;15.40;12.20;;;;;;;;;;2059651;28;20261;-58
2021/07/21 03:10:01;;;;;;;15.45;12.57;;;;;;;;;;2059871;28;20186;-58
2021/07/21 03:11:07;;;;;;;14.93;11.65;;;;;;;;;;2063594;28;20178;-57
2021/07/21 03:12:09;;;;;;;16.38;12.85;;;;;;;;;;2071731;28;20187;-59
2021/07/21 03:13:30;;;;;;;15.07;11.15;;;;;;;;;;2067834;28;20586;-56
2021/07/21 03:14:35;;;;;;;13.05;10.88;;;;;;;;;;2064803;28;20412;-57
2021/07/21 03:15:38;;;;;;;13.35;11.25;;;;;;;;;;2067731;28;20177;-55
2021/07/21 03:16:45;;;;;;;15.00;11.60;;;;;;;;;;2063714;28;20252;-58
2021/07/21 03:17:54;;;;;;;14.00;11.77;;;;;;;;;;2051753;28;20517;-58
2021/07/21 03:18:59;;;;;;;13.77;11.65;;;;;;;;;;2055715;28;20162;-58
2021/07/21 03:20:06;;;;;;;14.10;11.68;;;;;;;;;;2065545;28;20166;-55
2021/07/21 03:21:13;;;;;;;14.38;11.98;;;;;;;;;;2062348;28;20574;-50
2021/07/21 03:22:23;;;;;;;14.38;11.68;;;;;;;;;;2063873;28;20650;-51
2021/07/21 03:23:29;;;;;;;13.18;11.20;;;;;;;;;;2064441;28;20292;-53
2021/07/21 03:24:50;;;;;;;14.05;11.85;;;;;;;;;;2065084;28;20570;-54
2021/07/21 03:25:54;;;;;;;13.48;11.55;;;;;;;;;;2073011;28;20284;-56
2021/07/21 03:26:56;;;;;;;14.10;11.23;;;;;;;;;;2072316;28;20212;-56
2021/07/21 03:28:02;;;;;;;14.85;12.05;;;;;;;;;;2073169;28;20651;-54
2021/07/21 03:29:23;;;;;;;14.75;11.68;;;;;;;;;;2058792;28;20188;-55
2021/07/21 03:30:29;;;;;;;14.70;13.20;;;;;;;;;;2063312;28;20177;-58
2021/07/21 03:31:36;;;;;;;15.73;12.30;;;;;;;;;;2055665;28;20217;-51
2021/07/21 03:32:39;;;;;;;15.85;12.50;;;;;;;;;;2064077;28;20162;-55
2021/07/21 03:33:40;;;;;;;15.60;12.27;;;;;;;;;;2057056;28;20190;-50
2021/07/21 03:34:49;;;;;;;15.63;12.40;;;;;;;;;;2049687;28;20179;-52
2021/07/21 03:35:50;;;;;;;13.15;11.75;;;;;;;;;;2054015;28;20174;-52
2021/07/21 03:36:58;;;;;;;13.30;11.52;;;;;;;;;;2056686;28;20658;-53
2021/07/21 03:38:19;;;;;;;14.98;12.90;;;;;;;;;;2066674;28;20220;-55
2021/07/21 03:39:33;;;;;;;15.77;11.82;;;;;;;;;;2062432;28;20201;-50
2021/07/21 03:40:55;;;;;;;12.63;11.30;;;;;;;;;;2058282;28;20293;-51
2021/07/21 03:42:12;;;;;;;16.65;12.52;;;;;;;;;;2064307;28;20185;-56
2021/07/21 03:43:12;;;;;;;13.60;11.27;;;;;;;;;;2055474;28;20186;-51
2021/07/21 03:44:23;;;;;;;12.38;10.57;;;;;;;;;;2054279;28;20667;-52
2021/07/21 03:45:28;;;;;;;14.30;11.60;;;;;;;;;;2055632;28;20174;-51
2021/07/21 03:46:30;;;;;;;15.73;11.98;;;;;;;;;;2063938;28;20204;-52
2021/07/21 03:47:31;;;;;;;13.07;11.68;;;;;;;;;;2053684;28;20682;-52
2021/07/21 03:48:32;;;;;;;12.02;10.77;;;;;;;;;;2054395;28;20174;-55
2021/07/21 03:49:49;;;;;;;13.15;11.18;;;;;;;;;;2064699;28;20173;-53
2021/07/21 03:50:57;;;;;;;16.00;11.20;;;;;;;;;;2070958;28;20655;-51
2021/07/21 03:52:01;;;;;;;12.40;11.10;;;;;;;;;;2062667;28;20228;-56
2021/07/21 03:53:11;;;;;;;14.93;10.93;;;;;;;;;;2066089;28;20170;-55
2021/07/21 03:54:12;;;;;;;16.20;12.20;;;;;;;;;;2064380;28;20204;-52
2021/07/21 03:55:25;;;;;;;18.55;11.73;;;;;;;;;;2064645;28;20209;-54
2021/07/21 03:56:59;;;;;;;12.80;10.63;;;;;;;;;;2066497;28;20182;-51
2021/07/21 03:58:07;;;;;;;13.68;10.70;;;;;;;;;;2059874;28;20185;-55
2021/07/21 03:59:27;;;;;;;15.93;11.95;;;;;;;;;;2059264;28;20186;-51
2021/07/21 04:00:28;;;;;;;15.45;11.82;;;;;;;;;;2055665;28;20174;-54
2021/07/21 04:01:28;;;;;;;14.13;11.55;;;;;;;;;;2059904;28;20181;-50
2021/07/21 04:02:31;;;;;;;14.82;12.43;;;;;;;;;;2073659;28;20181;-52
2021/07/21 04:03:33;;;;;;;15.82;11.68;;;;;;;;;;2065872;28;20197;-56
2021/07/21 04:04:42;;;;;;;14.65;11.05;;;;;;;;;;2065298;28;20301;-52
2021/07/21 04:05:42;;;;;;;12.63;10.80;;;;;;;;;;2070776;28;20288;-54
2021/07/21 04:06:48;;;;;;;15.18;11.10;;;;;;;;;;2065291;28;20248;-53
2021/07/21 04:08:15;;;;;;;13.75;11.88;;;;;;;;;;2041713;28;20204;-56
2021/07/21 04:09:19;;;;;;;15.57;11.55;;;;;;;;;;2070051;28;20235;-55
2021/07/21 04:10:20;;;;;;;15.65;11.68;;;;;;;;;;2064724;28;20186;-54
2021/07/21 04:11:24;;;;;;;14.60;11.85;;;;;;;;;;2063667;28;20220;-55
2021/07/21 04:12:25;;;;;;;14.18;11.98;;;;;;;;;;2065357;28;20252;-54
2021/07/21 04:13:34;;;;;;;15.85;11.63;;;;;;;;;;2074605;28;20203;-52
2021/07/21 04:14:51;;;;;;;13.57;11.73;;;;;;;;;;2065063;28;20165;-52
2021/07/21 04:16:11;;;;;;;14.00;10.93;;;;;;;;;;2060141;28;20558;-56
2021/07/21 04:17:12;;;;;;;13.27;11.70;;;;;;;;;;2061912;28;20248;-51
2021/07/21 04:18:15;;;;;;;14.18;11.20;;;;;;;;;;2065115;28;20185;-51
2021/07/21 04:19:17;;;;;;;14.63;11.77;;;;;;;;;;2064710;28;20182;-53
2021/07/21 04:20:19;;;;;;;15.77;11.50;;;;;;;;;;2064972;28;20177;-54
2021/07/21 04:21:21;;;;;;;17.02;12.13;;;;;;;;;;2060374;28;20190;-54
2021/07/21 04:22:24;;;;;;;12.85;11.02;;;;;;;;;;2054853;28;20852;-53
2021/07/21 04:23:27;;;;;;;11.77;10.50;;;;;;;;;;2056926;28;20205;-50
2021/07/21 04:24:29;;;;;;;15.10;12.30;;;;;;;;;;2072781;28;20209;-52
2021/07/21 04:25:30;;;;;;;14.55;11.85;;;;;;;;;;2066064;28;20169;-51
2021/07/21 04:26:36;;;;;;;15.00;11.10;;;;;;;;;;2057422;28;20193;-53
2021/07/21 04:27:42;;;;;;;16.80;12.73;;;;;;;;;;2056873;28;20738;-54
2021/07/21 04:28:50;;;;;;;14.52;12.13;;;;;;;;;;2064150;28;20178;-55
2021/07/21 04:29:51;;;;;;;13.80;12.15;;;;;;;;;;2064753;28;20258;-56
2021/07/21 04:30:54;;;;;;;15.77;12.55;;;;;;;;;;2062108;28;20558;-55
2021/07/21 04:31:54;;;;;;;14.43;11.43;;;;;;;;;;2057798;28;20706;-57
2021/07/21 04:32:57;;;;;;;16.27;12.13;;;;;;;;;;2056948;28;20237;-55
2021/07/21 04:33:59;;;;;;;15.93;12.35;;;;;;;;;;2064269;28;20702;-54
2021/07/21 04:35:03;;;;;;;16.58;12.25;;;;;;;;;;2057507;28;20549;-55
2021/07/21 04:36:03;;;;;;;16.08;12.70;;;;;;;;;;2062830;28;20173;-53
2021/07/21 04:37:04;;;;;;;16.25;12.95;;;;;;;;;;2064630;28;20212;-51
2021/07/21 04:38:28;;;;;;;15.85;12.25;;;;;;;;;;2057937;28;20229;-49
2021/07/21 04:39:41;;;;;;;14.30;11.88;;;;;;;;;;2060125;28;20191;-54
2021/07/21 04:41:18;;;;;;;14.88;11.43;;;;;;;;;;2046752;29;20195;-52
2021/07/21 04:42:28;;;;;;;18.23;11.70;;;;;;;;;;2040843;29;20183;-52
2021/07/21 04:43:29;;;;;;;15.32;11.82;;;;;;;;;;2056419;23;20327;-54
2021/07/21 04:44:31;;;;;;;17.15;11.45;;;;;;;;;;2050882;28;20241;-57
2021/07/21 04:45:31;;;;;;;14.10;11.52;;;;;;;;;;2058061;28;20170;-59
2021/07/21 04:46:34;;;;;;;12.38;10.68;;;;;;;;;;2058583;28;20170;-56
2021/07/21 04:47:39;;;;;;;13.95;11.52;;;;;;;;;;2064891;28;20170;-55
2021/07/21 04:48:42;;;;;;;12.93;11.05;;;;;;;;;;2057345;28;20735;-57
2021/07/21 04:49:52;;;;;;;13.68;11.50;;;;;;;;;;2057549;28;20570;-56
2021/07/21 04:50:53;;;;;;;16.73;11.68;;;;;;;;;;2061159;28;20204;-56
2021/07/21 04:52:03;;;;;;;17.60;11.90;;;;;;;;;;2071952;28;20666;-54
2021/07/21 04:53:05;;;;;;;14.57;11.18;;;;;;;;;;2065808;28;20527;-55
2021/07/21 04:54:06;;;;;;;17.42;12.40;;;;;;;;;;2062373;28;20290;-56
2021/07/21 04:55:11;;;;;;;14.43;11.52;;;;;;;;;;2060733;28;20229;-52
2021/07/21 04:56:15;;;;;;;16.45;11.35;;;;;;;;;;2064664;28;20196;-57
2021/07/21 04:57:18;;;;;;;15.40;12.40;;;;;;;;;;2061757;28;20190;-56
2021/07/21 04:58:34;;;;;;;16.20;11.93;;;;;;;;;;2064913;28;20197;-58
2021/07/21 04:59:42;;;;;;;14.90;11.30;;;;;;;;;;2064805;28;20169;-57
2021/07/21 05:00:43;;;;;;;14.00;11.77;;;;;;;;;;2058848;28;20655;-56
2021/07/21 05:01:49;;;;;;;12.23;10.85;;;;;;;;;;2049187;28;20189;-57
2021/07/21 05:02:50;;;;;;;15.45;12.32;;;;;;;;;;2057355;28;20174;-56
2021/07/21 05:03:54;;;;;;;13.60;11.38;;;;;;;;;;2065879;28;20194;-54
2021/07/21 05:05:14;;;;;;;16.20;12.10;;;;;;;;;;2059860;28;20190;-56
2021/07/21 05:06:24;;;;;;;15.23;12.20;;;;;;;;;;2060857;28;20578;-56
2021/07/21 05:07:26;;;;;;;13.98;11.90;;;;;;;;;;2056549;28;20191;-56
2021/07/21 05:08:33;;;;;;;14.95;11.70;;;;;;;;;;2056323;28;20612;-52
2021/07/21 05:09:54;;;;;;;15.57;12.38;;;;;;;;;;2064095;28;20182;-56
2021/07/21 05:10:57;;;;;;;11.70;10.40;;;;;;;;;;2063595;28;20582;-55
2021/07/21 05:11:58;;;;;;;13.40;11.27;;;;;;;;;;2061356;28;20176;-57
2021/07/21 05:12:58;;;;;;;18.38;13.07;;;;;;;;;;2070341;28;20571;-49
2021/07/21 05:14:04;;;;;;;15.82;12.52;;;;;;;;;;2054395;28;20685;-58
2021/07/21 05:15:13;;;;;;;15.02;11.15;;;;;;;;;;2056830;28;20530;-57
2021/07/21 05:16:24;;;;;;;14.00;11.65;;;;;;;;;;2056364;28;20162;-53
2021/07/21 05:17:25;;;;;;;13.68;12.20;;;;;;;;;;2054910;28;20190;-57
2021/07/21 05:18:26;;;;;;;17.45;15.02;;;;;;;;;;2056332;28;20269;-58
2021/07/21 05:19:32;;;;;;;15.50;11.95;;;;;;;;;;2056900;28;20265;-55
2021/07/21 05:20:32;;;;;;;19.08;12.07;;;;;;;;;;2056174;28;20174;-54
2021/07/21 05:21:37;;;;;;;14.02;11.05;;;;;;;;;;2055877;28;20182;-54
2021/07/21 05:22:42;;;;;;;15.02;12.82;;;;;;;;;;2048902;28;20210;-58
2021/07/21 05:23:43;;;;;;;15.55;11.88;;;;;;;;;;2049073;28;20223;-53
2021/07/21 05:24:44;;;;;;;15.18;11.32;;;;;;;;;;2056359;28;20202;-58
2021/07/21 05:25:45;;;;;;;13.63;10.77;;;;;;;;;;2055629;28;20254;-55
2021/07/21 05:27:12;;;;;;;14.57;10.88;;;;;;;;;;2062788;28;20185;-54
2021/07/21 05:28:12;;;;;;;15.77;11.75;;;;;;;;;;2061495;28;20548;-54
2021/07/21 05:29:15;;;;;;;14.23;11.00;;;;;;;;;;2061395;28;20190;-57
2021/07/21 05:30:19;;;;;;;11.95;10.13;;;;;;;;;;2060328;28;20599;-55
2021/07/21 05:31:34;;;;;;;14.52;11.30;;;;;;;;;;2062515;28;20292;-57
2021/07/21 05:33:04;;;;;;;15.77;10.85;;;;;;;;;;2054949;28;20183;-57
2021/07/21 05:34:06;;;;;;;17.50;13.75;;;;;;;;;;2061125;28;20182;-53
2021/07/21 05:35:08;;;;;;;17.98;12.90;;;;;;;;;;2051540;28;20606;-57
2021/07/21 05:36:25;;;;;;;16.77;13.93;;;;;;;;;;2062250;28;20184;-58
2021/07/21 05:37:26;;;;;;;14.30;10.90;;;;;;;;;;2064510;28;20628;-55
2021/07/21 05:38:31;;;;;;;16.55;12.27;;;;;;;;;;2057656;28;20185;-57
2021/07/21 05:39:32;;;;;;;15.32;11.52;;;;;;;;;;2062764;28;20173;-57
2021/07/21 05:40:32;;;;;;;15.18;11.77;;;;;;;;;;2060079;28;20267;-58
2021/07/21 05:41:37;;;;;;;14.88;10.95;;;;;;;;;;2064434;28;20170;-58
2021/07/21 05:42:38;;;;;;;12.23;10.52;;;;;;;;;;2061091;28;20190;-57
2021/07/21 05:43:38;;;;;;;12.63;11.25;;;;;;;;;;2062404;28;20301;-56
2021/07/21 05:44:41;;;;;;;14.10;10.48;;;;;;;;;;2055996;28;20628;-57
2021/07/21 05:45:41;;;;;;;12.13;10.82;;;;;;;;;;2063929;28;20181;-55
2021/07/21 05:46:42;;;;;;;14.43;11.52;;;;;;;;;;2065121;28;20643;-55
2021/07/21 05:47:42;;;;;;;12.52;11.23;;;;;;;;;;2065218;28;20252;-57
2021/07/21 05:48:44;;;;;;;15.25;12.07;;;;;;;;;;2053946;28;20179;-58
2021/07/21 05:50:23;;;;;;;16.27;9.68;;;;;;;;;;2050784;29;20198;-59
2021/07/21 05:51:29;;;;;;;13.00;10.23;;;;;;;;;;2050834;29;20719;-58
2021/07/21 05:52:48;;;;;;;13.05;10.85;;;;;;;;;;2051631;29;20229;-58
2021/07/21 05:53:48;;;;;;;12.80;10.00;;;;;;;;;;2052103;29;20195;-58
2021/07/21 05:54:49;;;;;;;12.90;11.57;;;;;;;;;;2049011;29;20179;-56
2021/07/21 05:55:52;;;;;;;14.63;12.25;;;;;;;;;;2059290;28;20190;-59
2021/07/21 05:56:55;;;;;;;13.93;10.32;;;;;;;;;;2058836;28;20185;-55
2021/07/21 05:58:02;;;;;;;12.05;9.80;;;;;;;;;;2069710;28;20169;-58
2021/07/21 05:59:03;;;;;;;13.07;10.93;;;;;;;;;;2057319;28;20171;-57
2021/07/21 06:00:08;;;;;;;14.15;9.90;;;;;;;;;;2068586;28;20188;-58
2021/07/21 06:01:15;;;;;;;11.25;10.00;;;;;;;;;;2062136;28;20181;-57
2021/07/21 06:02:17;;;;;;;14.75;12.13;;;;;;;;;;2064942;28;20711;-59
2021/07/21 06:03:20;;;;;;;13.02;10.70;;;;;;;;;;2060188;28;20186;-56
2021/07/21 06:04:58;;;;;;;14.63;11.15;;;;;;;;;;2058061;28;20650;-57
2021/07/21 06:06:17;;;;;;;14.32;10.55;;;;;;;;;;2063480;28;20166;-48
2021/07/21 06:07:36;;;;;;;13.35;9.95;;;;;;;;;;2063610;28;20185;-54
2021/07/21 06:08:55;;;;;;;12.20;10.27;;;;;;;;;;2061886;28;20652;-56
2021/07/21 06:09:58;;;;;;;12.30;10.68;;;;;;;;;;2063727;28;20184;-53
2021/07/21 06:11:04;;;;;;;13.30;9.82;;;;;;;;;;2063533;28;20192;-55
2021/07/21 06:12:06;;;;;;;12.18;9.95;;;;;;;;;;2053205;28;20725;-57
2021/07/21 06:13:07;;;;;;;12.43;9.80;;;;;;;;;;2064627;28;20182;-57
2021/07/21 06:14:07;;;;;;;15.70;10.27;;;;;;;;;;2070609;28;20662;-52
2021/07/21 06:15:11;;;;;;;12.57;10.23;;;;;;;;;;2062270;28;20655;-54
2021/07/21 06:16:15;;;;;;;11.93;10.10;;;;;;;;;;2054302;28;20178;-55
2021/07/21 06:17:15;;;;;;;11.55;10.07;;;;;;;;;;2062476;28;20232;-54
2021/07/21 06:18:36;;;;;;;14.23;10.10;;;;;;;;;;2063865;28;20187;-54
2021/07/21 06:19:36;;;;;;;12.43;10.23;;;;;;;;;;2067750;28;20173;-56
2021/07/21 06:20:37;;;;;;;16.35;11.00;;;;;;;;;;2075198;28;20184;-54
2021/07/21 06:21:37;;;;;;;12.82;9.98;;;;;;;;;;2077296;28;20212;-55
2021/07/21 06:22:57;;;;;;;13.55;10.38;;;;;;;;;;2066664;28;20166;-52
2021/07/21 06:24:00;;;;;;;12.73;10.55;;;;;;;;;;2061938;28;20951;-58
2021/07/21 06:25:01;;;;;;;11.45;10.25;;;;;;;;;;2066575;28;20169;-56
2021/07/21 06:26:10;;;;;;;14.80;11.07;;;;;;;;;;2066306;28;20205;-54
2021/07/21 06:27:28;;;;;;;11.80;10.00;;;;;;;;;;2060869;28;20174;-53
2021/07/21 06:28:34;;;;;;;11.80;9.35;;;;;;;;;;2064760;28;20193;-56
2021/07/21 06:29:34;;;;;;;13.70;10.60;;;;;;;;;;2057036;28;20182;-59